Terminal Aerodrome Forecast
Issued by NWS

Home | Current Version | Previous Version | Text Only | Print | Product List | Glossary On
Versions: 1 2 3 4 5 6 7 8 9 10 11 12 13 14 15
000
FTUS44 KBMX 280200 AAA
TAFTCL
TAF AMD
KTCL 280236Z 2803/2824 11005KT 4SM RA BR VCTS BKN007 OVC015CB
      TEMPO 2803/2805 2SM TSRA SCT007 OVC015CB
     FM280500 14007KT 2SM RA BR OVC004
     FM281300 25006KT 5SM SHRA BR OVC007=

USA.gov is the U.S. government's official web portal to all federal, state and local government web resources and services.